sensor_id;sensor_type;location;lat;lon;timestamp;P1;durP1;ratioP1;P2;durP2;ratioP2
67191;SDS011;54120;53.504;49.426;2022-12-18T00:01:47;33.08;;;14.20;;
67191;SDS011;54120;53.504;49.426;2022-12-18T00:04:21;27.70;;;13.45;;
67191;SDS011;54120;53.504;49.426;2022-12-18T00:06:48;36.72;;;14.38;;
67191;SDS011;54120;53.504;49.426;2022-12-18T00:09:14;29.70;;;14.38;;
67191;SDS011;54120;53.504;49.426;2022-12-18T00:11:40;35.25;;;14.82;;
67191;SDS011;54120;53.504;49.426;2022-12-18T00:14:06;28.45;;;13.52;;
67191;SDS011;54120;53.504;49.426;2022-12-18T00:16:34;29.90;;;12.45;;
67191;SDS011;54120;53.504;49.426;2022-12-18T00:19:00;25.25;;;12.35;;
67191;SDS011;54120;53.504;49.426;2022-12-18T00:21:27;31.38;;;14.60;;
67191;SDS011;54120;53.504;49.426;2022-12-18T00:23:54;27.70;;;11.80;;
67191;SDS011;54120;53.504;49.426;2022-12-18T00:26:21;23.92;;;12.85;;
67191;SDS011;54120;53.504;49.426;2022-12-18T00:28:52;26.65;;;12.80;;
67191;SDS011;54120;53.504;49.426;2022-12-18T00:31:20;24.95;;;13.68;;
67191;SDS011;54120;53.504;49.426;2022-12-18T00:33:48;27.58;;;13.38;;
67191;SDS011;54120;53.504;49.426;2022-12-18T00:36:22;30.48;;;14.32;;
67191;SDS011;54120;53.504;49.426;2022-12-18T00:38:52;34.55;;;14.68;;
67191;SDS011;54120;53.504;49.426;2022-12-18T00:41:20;32.28;;;13.57;;
67191;SDS011;54120;53.504;49.426;2022-12-18T00:44:06;30.92;;;14.05;;
67191;SDS011;54120;53.504;49.426;2022-12-18T00:46:33;30.83;;;13.93;;
67191;SDS011;54120;53.504;49.426;2022-12-18T00:48:59;26.52;;;13.40;;
67191;SDS011;54120;53.504;49.426;2022-12-18T00:51:25;24.58;;;12.80;;
67191;SDS011;54120;53.504;49.426;2022-12-18T00:53:52;28.73;;;12.95;;
67191;SDS011;54120;53.504;49.426;2022-12-18T00:56:18;23.20;;;12.38;;
67191;SDS011;54120;53.504;49.426;2022-12-18T00:58:47;28.85;;;13.18;;
67191;SDS011;54120;53.504;49.426;2022-12-18T01:01:13;27.17;;;13.05;;
67191;SDS011;54120;53.504;49.426;2022-12-18T01:03:39;28.10;;;13.38;;
67191;SDS011;54120;53.504;49.426;2022-12-18T01:06:09;25.42;;;14.10;;
67191;SDS011;54120;53.504;49.426;2022-12-18T01:08:37;27.00;;;14.07;;
67191;SDS011;54120;53.504;49.426;2022-12-18T01:11:07;27.33;;;12.73;;
67191;SDS011;54120;53.504;49.426;2022-12-18T01:13:38;28.45;;;14.05;;
67191;SDS011;54120;53.504;49.426;2022-12-18T01:16:05;29.13;;;12.70;;
67191;SDS011;54120;53.504;49.426;2022-12-18T01:18:31;28.58;;;13.40;;
67191;SDS011;54120;53.504;49.426;2022-12-18T01:20:57;28.05;;;12.93;;
67191;SDS011;54120;53.504;49.426;2022-12-18T01:23:23;30.60;;;14.63;;
67191;SDS011;54120;53.504;49.426;2022-12-18T01:25:49;25.60;;;12.13;;
67191;SDS011;54120;53.504;49.426;2022-12-18T01:28:15;26.35;;;12.80;;
67191;SDS011;54120;53.504;49.426;2022-12-18T01:30:41;23.92;;;12.68;;
67191;SDS011;54120;53.504;49.426;2022-12-18T01:33:07;22.65;;;11.55;;
67191;SDS011;54120;53.504;49.426;2022-12-18T01:35:40;20.25;;;11.05;;
67191;SDS011;54120;53.504;49.426;2022-12-18T01:38:07;21.00;;;11.05;;
67191;SDS011;54120;53.504;49.426;2022-12-18T01:40:33;21.08;;;10.73;;
67191;SDS011;54120;53.504;49.426;2022-12-18T01:43:00;23.42;;;11.50;;
67191;SDS011;54120;53.504;49.426;2022-12-18T01:45:29;20.83;;;10.48;;
67191;SDS011;54120;53.504;49.426;2022-12-18T01:48:04;22.10;;;11.65;;
67191;SDS011;54120;53.504;49.426;2022-12-18T01:55:40;22.83;;;11.40;;
67191;SDS011;54120;53.504;49.426;2022-12-18T01:58:11;21.48;;;11.45;;
67191;SDS011;54120;53.504;49.426;2022-12-18T02:00:38;24.63;;;11.50;;
67191;SDS011;54120;53.504;49.426;2022-12-18T02:03:04;18.35;;;9.65;;
67191;SDS011;54120;53.504;49.426;2022-12-18T02:05:36;21.85;;;11.55;;
67191;SDS011;54120;53.504;49.426;2022-12-18T02:08:10;16.65;;;8.60;;
67191;SDS011;54120;53.504;49.426;2022-12-18T02:10:56;23.58;;;11.35;;
67191;SDS011;54120;53.504;49.426;2022-12-18T02:13:46;24.90;;;11.60;;
67191;SDS011;54120;53.504;49.426;2022-12-18T02:19:05;21.90;;;11.60;;
67191;SDS011;54120;53.504;49.426;2022-12-18T02:26:59;26.33;;;11.40;;
67191;SDS011;54120;53.504;49.426;2022-12-18T02:29:31;22.55;;;10.00;;
67191;SDS011;54120;53.504;49.426;2022-12-18T02:32:03;21.27;;;11.32;;
67191;SDS011;54120;53.504;49.426;2022-12-18T02:34:34;23.35;;;11.75;;
67191;SDS011;54120;53.504;49.426;2022-12-18T02:37:04;20.27;;;11.15;;
67191;SDS011;54120;53.504;49.426;2022-12-18T02:39:33;19.50;;;10.65;;
67191;SDS011;54120;53.504;49.426;2022-12-18T02:42:02;9.48;;;5.45;;
67191;SDS011;54120;53.504;49.426;2022-12-18T02:44:43;21.48;;;11.13;;
67191;SDS011;54120;53.504;49.426;2022-12-18T02:47:11;21.77;;;10.95;;
67191;SDS011;54120;53.504;49.426;2022-12-18T02:55:16;17.30;;;8.75;;
67191;SDS011;54120;53.504;49.426;2022-12-18T03:03:29;21.55;;;8.98;;
67191;SDS011;54120;53.504;49.426;2022-12-18T03:08:35;20.90;;;9.18;;
67191;SDS011;54120;53.504;49.426;2022-12-18T03:11:07;18.35;;;9.48;;
67191;SDS011;54120;53.504;49.426;2022-12-18T03:13:52;14.70;;;6.97;;
67191;SDS011;54120;53.504;49.426;2022-12-18T03:16:25;16.92;;;8.80;;
67191;SDS011;54120;53.504;49.426;2022-12-18T03:19:08;11.80;;;7.25;;
67191;SDS011;54120;53.504;49.426;2022-12-18T03:21:38;15.23;;;8.48;;
67191;SDS011;54120;53.504;49.426;2022-12-18T03:24:09;19.85;;;9.82;;
67191;SDS011;54120;53.504;49.426;2022-12-18T03:26:36;14.40;;;8.18;;
67191;SDS011;54120;53.504;49.426;2022-12-18T03:29:09;15.50;;;8.40;;
67191;SDS011;54120;53.504;49.426;2022-12-18T03:31:40;16.73;;;9.07;;
67191;SDS011;54120;53.504;49.426;2022-12-18T03:34:09;14.38;;;8.05;;
67191;SDS011;54120;53.504;49.426;2022-12-18T03:36:40;17.48;;;9.05;;
67191;SDS011;54120;53.504;49.426;2022-12-18T03:39:06;14.20;;;8.77;;
67191;SDS011;54120;53.504;49.426;2022-12-18T03:41:43;17.75;;;8.50;;
67191;SDS011;54120;53.504;49.426;2022-12-18T03:46:58;8.70;;;5.40;;
67191;SDS011;54120;53.504;49.426;2022-12-18T03:52:06;14.85;;;7.45;;
67191;SDS011;54120;53.504;49.426;2022-12-18T03:54:36;16.67;;;8.98;;
67191;SDS011;54120;53.504;49.426;2022-12-18T03:57:13;9.55;;;5.65;;
67191;SDS011;54120;53.504;49.426;2022-12-18T03:59:44;14.98;;;6.90;;
67191;SDS011;54120;53.504;49.426;2022-12-18T04:02:12;15.00;;;8.27;;
67191;SDS011;54120;53.504;49.426;2022-12-18T04:04:41;14.43;;;7.53;;
67191;SDS011;54120;53.504;49.426;2022-12-18T04:07:09;13.13;;;7.25;;
67191;SDS011;54120;53.504;49.426;2022-12-18T04:09:36;14.32;;;8.02;;
67191;SDS011;54120;53.504;49.426;2022-12-18T04:12:05;13.65;;;8.10;;
67191;SDS011;54120;53.504;49.426;2022-12-18T04:14:31;15.02;;;7.28;;
67191;SDS011;54120;53.504;49.426;2022-12-18T04:17:01;13.98;;;8.02;;
67191;SDS011;54120;53.504;49.426;2022-12-18T04:19:27;14.43;;;7.75;;
67191;SDS011;54120;53.504;49.426;2022-12-18T04:21:54;13.98;;;6.63;;
67191;SDS011;54120;53.504;49.426;2022-12-18T04:24:20;13.45;;;8.13;;
67191;SDS011;54120;53.504;49.426;2022-12-18T04:26:46;12.50;;;7.22;;
67191;SDS011;54120;53.504;49.426;2022-12-18T04:29:12;10.40;;;6.90;;
67191;SDS011;54120;53.504;49.426;2022-12-18T04:31:38;11.68;;;7.30;;
67191;SDS011;54120;53.504;49.426;2022-12-18T04:34:04;11.38;;;6.43;;
67191;SDS011;54120;53.504;49.426;2022-12-18T04:36:30;11.15;;;6.47;;
67191;SDS011;54120;53.504;49.426;2022-12-18T04:38:56;9.63;;;6.18;;
67191;SDS011;54120;53.504;49.426;2022-12-18T04:41:22;12.00;;;7.13;;
67191;SDS011;54120;53.504;49.426;2022-12-18T04:43:48;10.13;;;6.47;;
67191;SDS011;54120;53.504;49.426;2022-12-18T04:46:14;9.15;;;5.70;;
67191;SDS011;54120;53.504;49.426;2022-12-18T04:48:40;7.88;;;5.13;;
67191;SDS011;54120;53.504;49.426;2022-12-18T04:51:06;9.98;;;5.53;;
67191;SDS011;54120;53.504;49.426;2022-12-18T04:53:33;6.63;;;4.65;;
67191;SDS011;54120;53.504;49.426;2022-12-18T04:56:05;8.60;;;4.97;;
67191;SDS011;54120;53.504;49.426;2022-12-18T04:58:34;10.95;;;5.00;;
67191;SDS011;54120;53.504;49.426;2022-12-18T05:01:01;7.53;;;4.30;;
67191;SDS011;54120;53.504;49.426;2022-12-18T05:03:27;6.68;;;4.55;;
67191;SDS011;54120;53.504;49.426;2022-12-18T05:05:53;6.22;;;3.22;;
67191;SDS011;54120;53.504;49.426;2022-12-18T05:08:19;7.60;;;3.70;;
67191;SDS011;54120;53.504;49.426;2022-12-18T05:10:45;5.75;;;3.90;;
67191;SDS011;54120;53.504;49.426;2022-12-18T05:13:11;4.93;;;3.70;;
67191;SDS011;54120;53.504;49.426;2022-12-18T05:15:37;5.05;;;3.58;;
67191;SDS011;54120;53.504;49.426;2022-12-18T05:18:03;5.70;;;3.72;;
67191;SDS011;54120;53.504;49.426;2022-12-18T05:20:30;8.13;;;4.72;;
67191;SDS011;54120;53.504;49.426;2022-12-18T05:22:56;7.13;;;4.35;;
67191;SDS011;54120;53.504;49.426;2022-12-18T05:25:22;6.05;;;4.20;;
67191;SDS011;54120;53.504;49.426;2022-12-18T05:27:49;5.60;;;3.63;;
67191;SDS011;54120;53.504;49.426;2022-12-18T05:30:15;5.38;;;3.53;;
67191;SDS011;54120;53.504;49.426;2022-12-18T05:32:42;5.95;;;3.90;;
67191;SDS011;54120;53.504;49.426;2022-12-18T05:35:09;6.70;;;3.88;;
67191;SDS011;54120;53.504;49.426;2022-12-18T05:37:36;5.85;;;3.90;;
67191;SDS011;54120;53.504;49.426;2022-12-18T05:40:02;6.30;;;4.53;;
67191;SDS011;54120;53.504;49.426;2022-12-18T05:42:29;7.75;;;4.55;;
67191;SDS011;54120;53.504;49.426;2022-12-18T05:44:57;5.55;;;3.95;;
67191;SDS011;54120;53.504;49.426;2022-12-18T05:47:23;8.90;;;5.10;;
67191;SDS011;54120;53.504;49.426;2022-12-18T05:49:49;8.75;;;5.00;;
67191;SDS011;54120;53.504;49.426;2022-12-18T05:52:15;6.47;;;4.57;;
67191;SDS011;54120;53.504;49.426;2022-12-18T05:54:41;10.30;;;6.00;;
67191;SDS011;54120;53.504;49.426;2022-12-18T05:57:07;8.70;;;5.25;;
67191;SDS011;54120;53.504;49.426;2022-12-18T05:59:33;6.57;;;4.25;;
67191;SDS011;54120;53.504;49.426;2022-12-18T06:01:59;13.85;;;6.97;;
67191;SDS011;54120;53.504;49.426;2022-12-18T06:04:26;9.82;;;6.13;;
67191;SDS011;54120;53.504;49.426;2022-12-18T06:06:54;12.45;;;7.25;;
67191;SDS011;54120;53.504;49.426;2022-12-18T06:09:20;16.70;;;8.45;;
67191;SDS011;54120;53.504;49.426;2022-12-18T06:11:46;16.42;;;9.18;;
67191;SDS011;54120;53.504;49.426;2022-12-18T06:14:12;14.60;;;8.23;;
67191;SDS011;54120;53.504;49.426;2022-12-18T06:16:38;16.27;;;8.05;;
67191;SDS011;54120;53.504;49.426;2022-12-18T06:19:04;15.00;;;8.98;;
67191;SDS011;54120;53.504;49.426;2022-12-18T06:21:31;15.25;;;7.47;;
67191;SDS011;54120;53.504;49.426;2022-12-18T06:23:57;20.50;;;11.90;;
67191;SDS011;54120;53.504;49.426;2022-12-18T06:26:25;24.60;;;12.77;;
67191;SDS011;54120;53.504;49.426;2022-12-18T06:28:51;23.17;;;12.35;;
67191;SDS011;54120;53.504;49.426;2022-12-18T06:31:16;27.15;;;13.23;;
67191;SDS011;54120;53.504;49.426;2022-12-18T06:33:43;22.52;;;10.38;;
67191;SDS011;54120;53.504;49.426;2022-12-18T06:36:10;28.85;;;14.35;;
67191;SDS011;54120;53.504;49.426;2022-12-18T06:38:39;28.98;;;14.57;;
67191;SDS011;54120;53.504;49.426;2022-12-18T06:41:16;28.08;;;14.25;;
67191;SDS011;54120;53.504;49.426;2022-12-18T06:43:44;28.85;;;15.55;;
67191;SDS011;54120;53.504;49.426;2022-12-18T06:46:11;27.83;;;14.02;;
67191;SDS011;54120;53.504;49.426;2022-12-18T06:48:37;26.98;;;14.05;;
67191;SDS011;54120;53.504;49.426;2022-12-18T06:51:04;29.83;;;14.98;;
67191;SDS011;54120;53.504;49.426;2022-12-18T06:53:31;24.75;;;14.75;;
67191;SDS011;54120;53.504;49.426;2022-12-18T06:56:04;31.60;;;15.10;;
67191;SDS011;54120;53.504;49.426;2022-12-18T06:58:32;33.53;;;15.13;;
67191;SDS011;54120;53.504;49.426;2022-12-18T07:01:02;25.33;;;14.63;;
67191;SDS011;54120;53.504;49.426;2022-12-18T07:03:32;27.58;;;13.95;;
67191;SDS011;54120;53.504;49.426;2022-12-18T07:05:58;25.20;;;13.75;;
67191;SDS011;54120;53.504;49.426;2022-12-18T07:08:24;31.20;;;14.50;;
67191;SDS011;54120;53.504;49.426;2022-12-18T07:10:50;30.20;;;13.95;;
67191;SDS011;54120;53.504;49.426;2022-12-18T07:13:16;30.27;;;15.75;;
67191;SDS011;54120;53.504;49.426;2022-12-18T07:15:43;24.60;;;12.98;;
67191;SDS011;54120;53.504;49.426;2022-12-18T07:18:09;30.30;;;15.30;;
67191;SDS011;54120;53.504;49.426;2022-12-18T07:20:36;26.20;;;13.82;;
67191;SDS011;54120;53.504;49.426;2022-12-18T07:23:02;36.90;;;18.00;;
67191;SDS011;54120;53.504;49.426;2022-12-18T07:25:34;33.03;;;15.70;;
67191;SDS011;54120;53.504;49.426;2022-12-18T07:28:01;29.38;;;16.83;;
67191;SDS011;54120;53.504;49.426;2022-12-18T07:30:27;27.90;;;15.93;;
67191;SDS011;54120;53.504;49.426;2022-12-18T07:32:53;29.58;;;15.65;;
67191;SDS011;54120;53.504;49.426;2022-12-18T07:35:19;26.05;;;14.20;;
67191;SDS011;54120;53.504;49.426;2022-12-18T07:37:45;32.20;;;15.93;;
67191;SDS011;54120;53.504;49.426;2022-12-18T07:40:11;32.45;;;15.75;;
67191;SDS011;54120;53.504;49.426;2022-12-18T07:42:37;28.23;;;14.50;;
67191;SDS011;54120;53.504;49.426;2022-12-18T07:45:03;36.47;;;16.05;;
67191;SDS011;54120;53.504;49.426;2022-12-18T07:47:30;27.15;;;15.20;;
67191;SDS011;54120;53.504;49.426;2022-12-18T07:49:56;30.75;;;15.93;;
67191;SDS011;54120;53.504;49.426;2022-12-18T07:52:22;32.15;;;17.05;;
67191;SDS011;54120;53.504;49.426;2022-12-18T07:54:48;37.58;;;17.33;;
67191;SDS011;54120;53.504;49.426;2022-12-18T07:57:16;31.77;;;16.13;;
67191;SDS011;54120;53.504;49.426;2022-12-18T07:59:43;33.13;;;16.63;;
67191;SDS011;54120;53.504;49.426;2022-12-18T08:02:09;34.15;;;16.67;;
67191;SDS011;54120;53.504;49.426;2022-12-18T08:04:35;35.97;;;18.90;;
67191;SDS011;54120;53.504;49.426;2022-12-18T08:07:01;33.70;;;18.33;;
67191;SDS011;54120;53.504;49.426;2022-12-18T08:09:27;32.95;;;15.50;;
67191;SDS011;54120;53.504;49.426;2022-12-18T08:11:53;35.13;;;16.67;;
67191;SDS011;54120;53.504;49.426;2022-12-18T08:14:19;34.15;;;16.10;;
67191;SDS011;54120;53.504;49.426;2022-12-18T08:16:45;29.98;;;15.57;;
67191;SDS011;54120;53.504;49.426;2022-12-18T08:19:11;42.63;;;19.02;;
67191;SDS011;54120;53.504;49.426;2022-12-18T08:21:37;28.27;;;16.05;;
67191;SDS011;54120;53.504;49.426;2022-12-18T08:24:06;32.28;;;17.13;;
67191;SDS011;54120;53.504;49.426;2022-12-18T08:26:34;39.53;;;19.20;;
67191;SDS011;54120;53.504;49.426;2022-12-18T08:29:00;27.13;;;15.02;;
67191;SDS011;54120;53.504;49.426;2022-12-18T08:31:27;25.95;;;13.30;;
67191;SDS011;54120;53.504;49.426;2022-12-18T08:33:54;35.35;;;18.45;;
67191;SDS011;54120;53.504;49.426;2022-12-18T08:36:21;27.98;;;15.07;;
67191;SDS011;54120;53.504;49.426;2022-12-18T08:38:48;23.88;;;14.00;;
67191;SDS011;54120;53.504;49.426;2022-12-18T08:41:15;19.88;;;11.93;;
67191;SDS011;54120;53.504;49.426;2022-12-18T08:43:42;21.50;;;14.05;;
67191;SDS011;54120;53.504;49.426;2022-12-18T08:46:27;27.98;;;12.80;;
67191;SDS011;54120;53.504;49.426;2022-12-18T08:48:59;24.30;;;13.50;;
67191;SDS011;54120;53.504;49.426;2022-12-18T08:51:25;28.60;;;16.25;;
67191;SDS011;54120;53.504;49.426;2022-12-18T08:53:51;26.60;;;14.13;;
67191;SDS011;54120;53.504;49.426;2022-12-18T08:56:17;26.10;;;13.25;;
67191;SDS011;54120;53.504;49.426;2022-12-18T08:58:43;23.70;;;13.40;;
67191;SDS011;54120;53.504;49.426;2022-12-18T09:01:10;21.20;;;10.93;;
67191;SDS011;54120;53.504;49.426;2022-12-18T09:03:37;23.45;;;13.18;;
67191;SDS011;54120;53.504;49.426;2022-12-18T09:06:06;29.48;;;12.68;;
67191;SDS011;54120;53.504;49.426;2022-12-18T09:08:32;24.58;;;16.20;;
67191;SDS011;54120;53.504;49.426;2022-12-18T09:10:59;26.30;;;12.43;;
67191;SDS011;54120;53.504;49.426;2022-12-18T09:13:25;17.70;;;11.43;;
67191;SDS011;54120;53.504;49.426;2022-12-18T09:15:51;20.58;;;10.70;;
67191;SDS011;54120;53.504;49.426;2022-12-18T09:18:19;17.23;;;10.25;;
67191;SDS011;54120;53.504;49.426;2022-12-18T09:20:46;19.65;;;9.98;;
67191;SDS011;54120;53.504;49.426;2022-12-18T09:23:12;19.85;;;11.07;;
67191;SDS011;54120;53.504;49.426;2022-12-18T09:25:39;17.60;;;10.20;;
67191;SDS011;54120;53.504;49.426;2022-12-18T09:28:09;13.98;;;8.02;;
67191;SDS011;54120;53.504;49.426;2022-12-18T09:30:43;26.50;;;15.07;;
67191;SDS011;54120;53.504;49.426;2022-12-18T09:33:14;13.88;;;8.85;;
67191;SDS011;54120;53.504;49.426;2022-12-18T09:35:42;13.23;;;7.78;;
67191;SDS011;54120;53.504;49.426;2022-12-18T09:38:13;18.20;;;9.65;;
67191;SDS011;54120;53.504;49.426;2022-12-18T09:40:48;11.80;;;7.55;;
67191;SDS011;54120;53.504;49.426;2022-12-18T09:43:18;15.43;;;8.27;;
67191;SDS011;54120;53.504;49.426;2022-12-18T09:45:49;14.73;;;8.77;;
67191;SDS011;54120;53.504;49.426;2022-12-18T09:48:19;18.65;;;10.23;;
67191;SDS011;54120;53.504;49.426;2022-12-18T09:50:54;14.60;;;9.38;;
67191;SDS011;54120;53.504;49.426;2022-12-18T09:53:25;17.40;;;10.07;;
67191;SDS011;54120;53.504;49.426;2022-12-18T09:55:53;14.77;;;9.45;;
67191;SDS011;54120;53.504;49.426;2022-12-18T09:58:32;15.23;;;8.63;;
67191;SDS011;54120;53.504;49.426;2022-12-18T10:01:12;15.48;;;9.07;;
67191;SDS011;54120;53.504;49.426;2022-12-18T10:03:43;16.60;;;9.30;;
67191;SDS011;54120;53.504;49.426;2022-12-18T10:08:48;15.52;;;8.73;;
67191;SDS011;54120;53.504;49.426;2022-12-18T10:21:57;19.95;;;11.25;;
67191;SDS011;54120;53.504;49.426;2022-12-18T10:24:49;26.98;;;12.25;;
67191;SDS011;54120;53.504;49.426;2022-12-18T10:27:28;24.95;;;12.18;;
67191;SDS011;54120;53.504;49.426;2022-12-18T10:29:55;22.00;;;13.18;;
67191;SDS011;54120;53.504;49.426;2022-12-18T10:32:23;27.02;;;13.07;;
67191;SDS011;54120;53.504;49.426;2022-12-18T10:34:54;21.63;;;10.52;;
67191;SDS011;54120;53.504;49.426;2022-12-18T10:37:23;20.63;;;11.85;;
67191;SDS011;54120;53.504;49.426;2022-12-18T10:40:07;19.73;;;11.82;;
67191;SDS011;54120;53.504;49.426;2022-12-18T10:42:39;17.42;;;10.00;;
67191;SDS011;54120;53.504;49.426;2022-12-18T10:45:11;20.45;;;11.52;;
67191;SDS011;54120;53.504;49.426;2022-12-18T10:47:42;15.55;;;10.52;;
67191;SDS011;54120;53.504;49.426;2022-12-18T10:50:20;15.55;;;8.45;;
67191;SDS011;54120;53.504;49.426;2022-12-18T10:52:57;15.38;;;8.13;;
67191;SDS011;54120;53.504;49.426;2022-12-18T10:55:35;11.90;;;7.97;;
67191;SDS011;54120;53.504;49.426;2022-12-18T11:01:13;12.98;;;8.43;;
67191;SDS011;54120;53.504;49.426;2022-12-18T11:06:12;13.27;;;7.63;;
67191;SDS011;54120;53.504;49.426;2022-12-18T11:08:40;10.73;;;6.68;;
67191;SDS011;54120;53.504;49.426;2022-12-18T11:11:21;10.30;;;6.78;;
67191;SDS011;54120;53.504;49.426;2022-12-18T11:14:07;12.18;;;7.40;;
67191;SDS011;54120;53.504;49.426;2022-12-18T11:16:44;13.43;;;7.83;;
67191;SDS011;54120;53.504;49.426;2022-12-18T11:19:20;12.88;;;8.27;;
67191;SDS011;54120;53.504;49.426;2022-12-18T11:22:21;14.82;;;8.88;;
67191;SDS011;54120;53.504;49.426;2022-12-18T11:27:54;13.50;;;7.72;;
67191;SDS011;54120;53.504;49.426;2022-12-18T11:32:56;19.77;;;10.93;;
67191;SDS011;54120;53.504;49.426;2022-12-18T11:35:51;19.92;;;11.98;;
67191;SDS011;54120;53.504;49.426;2022-12-18T11:38:20;19.42;;;11.88;;
67191;SDS011;54120;53.504;49.426;2022-12-18T11:41:00;19.95;;;11.02;;
67191;SDS011;54120;53.504;49.426;2022-12-18T11:44:02;24.27;;;13.27;;
67191;SDS011;54120;53.504;49.426;2022-12-18T11:49:13;25.75;;;14.45;;
67191;SDS011;54120;53.504;49.426;2022-12-18T11:51:49;29.23;;;15.85;;
67191;SDS011;54120;53.504;49.426;2022-12-18T11:54:21;28.25;;;15.60;;
67191;SDS011;54120;53.504;49.426;2022-12-18T12:07:35;31.63;;;15.27;;
67191;SDS011;54120;53.504;49.426;2022-12-18T12:10:36;29.35;;;14.63;;
67191;SDS011;54120;53.504;49.426;2022-12-18T12:16:07;33.17;;;17.40;;
67191;SDS011;54120;53.504;49.426;2022-12-18T12:18:55;32.17;;;16.27;;
67191;SDS011;54120;53.504;49.426;2022-12-18T12:21:41;30.02;;;15.23;;
67191;SDS011;54120;53.504;49.426;2022-12-18T12:24:43;29.58;;;15.57;;
67191;SDS011;54120;53.504;49.426;2022-12-18T12:30:20;23.33;;;13.60;;
67191;SDS011;54120;53.504;49.426;2022-12-18T12:41:24;26.35;;;13.27;;
67191;SDS011;54120;53.504;49.426;2022-12-18T12:44:30;24.45;;;13.45;;
67191;SDS011;54120;53.504;49.426;2022-12-18T12:47:27;20.75;;;12.05;;
67191;SDS011;54120;53.504;49.426;2022-12-18T12:49:53;23.10;;;11.55;;
67191;SDS011;54120;53.504;49.426;2022-12-18T12:55:04;14.00;;;9.52;;
67191;SDS011;54120;53.504;49.426;2022-12-18T12:58:15;20.13;;;11.10;;
67191;SDS011;54120;53.504;49.426;2022-12-18T13:00:35;17.48;;;10.25;;
67191;SDS011;54120;53.504;49.426;2022-12-18T13:03:13;19.25;;;10.40;;
67191;SDS011;54120;53.504;49.426;2022-12-18T13:06:02;22.58;;;12.68;;
67191;SDS011;54120;53.504;49.426;2022-12-18T13:08:56;22.02;;;12.43;;
67191;SDS011;54120;53.504;49.426;2022-12-18T13:14:30;25.60;;;14.55;;
67191;SDS011;54120;53.504;49.426;2022-12-18T13:17:16;25.15;;;14.40;;
67191;SDS011;54120;53.504;49.426;2022-12-18T13:20:04;25.23;;;14.27;;
67191;SDS011;54120;53.504;49.426;2022-12-18T13:22:34;24.65;;;13.95;;
67191;SDS011;54120;53.504;49.426;2022-12-18T13:25:01;20.63;;;12.38;;
67191;SDS011;54120;53.504;49.426;2022-12-18T13:40:58;14.43;;;8.88;;
67191;SDS011;54120;53.504;49.426;2022-12-18T13:43:32;16.42;;;9.90;;
67191;SDS011;54120;53.504;49.426;2022-12-18T13:46:28;15.23;;;9.20;;
67191;SDS011;54120;53.504;49.426;2022-12-18T13:51:31;15.02;;;8.02;;
67191;SDS011;54120;53.504;49.426;2022-12-18T13:56:56;10.75;;;7.63;;
67191;SDS011;54120;53.504;49.426;2022-12-18T13:59:23;13.45;;;8.02;;
67191;SDS011;54120;53.504;49.426;2022-12-18T14:01:55;11.73;;;7.47;;
67191;SDS011;54120;53.504;49.426;2022-12-18T14:06:52;12.05;;;7.78;;
67191;SDS011;54120;53.504;49.426;2022-12-18T14:09:24;12.82;;;8.57;;
67191;SDS011;54120;53.504;49.426;2022-12-18T14:11:52;11.43;;;8.10;;
67191;SDS011;54120;53.504;49.426;2022-12-18T14:14:46;12.38;;;8.38;;
67191;SDS011;54120;53.504;49.426;2022-12-18T14:17:14;13.95;;;8.50;;
67191;SDS011;54120;53.504;49.426;2022-12-18T14:19:41;11.48;;;7.97;;
67191;SDS011;54120;53.504;49.426;2022-12-18T14:22:22;9.45;;;6.82;;
67191;SDS011;54120;53.504;49.426;2022-12-18T14:28:02;11.60;;;6.90;;
67191;SDS011;54120;53.504;49.426;2022-12-18T14:30:32;11.73;;;7.65;;
67191;SDS011;54120;53.504;49.426;2022-12-18T14:33:16;9.67;;;6.27;;
67191;SDS011;54120;53.504;49.426;2022-12-18T14:36:03;8.52;;;6.38;;
67191;SDS011;54120;53.504;49.426;2022-12-18T14:38:41;12.23;;;7.30;;
67191;SDS011;54120;53.504;49.426;2022-12-18T14:41:14;12.73;;;7.13;;
67191;SDS011;54120;53.504;49.426;2022-12-18T14:43:42;11.13;;;7.35;;
67191;SDS011;54120;53.504;49.426;2022-12-18T14:48:58;11.43;;;7.13;;
67191;SDS011;54120;53.504;49.426;2022-12-18T14:51:30;10.48;;;7.18;;
67191;SDS011;54120;53.504;49.426;2022-12-18T14:53:59;11.05;;;6.60;;
67191;SDS011;54120;53.504;49.426;2022-12-18T14:56:36;10.02;;;6.55;;
67191;SDS011;54120;53.504;49.426;2022-12-18T14:59:13;9.82;;;6.60;;
67191;SDS011;54120;53.504;49.426;2022-12-18T15:04:23;10.98;;;7.10;;
67191;SDS011;54120;53.504;49.426;2022-12-18T15:09:36;10.57;;;6.47;;
67191;SDS011;54120;53.504;49.426;2022-12-18T15:12:22;9.75;;;6.70;;
67191;SDS011;54120;53.504;49.426;2022-12-18T15:14:53;6.03;;;4.78;;
67191;SDS011;54120;53.504;49.426;2022-12-18T15:17:20;6.43;;;4.50;;
67191;SDS011;54120;53.504;49.426;2022-12-18T15:19:48;6.82;;;4.68;;
67191;SDS011;54120;53.504;49.426;2022-12-18T15:22:18;6.40;;;4.20;;
67191;SDS011;54120;53.504;49.426;2022-12-18T15:24:46;5.63;;;4.10;;
67191;SDS011;54120;53.504;49.426;2022-12-18T15:27:35;6.57;;;4.03;;
67191;SDS011;54120;53.504;49.426;2022-12-18T15:30:24;3.80;;;3.30;;
67191;SDS011;54120;53.504;49.426;2022-12-18T15:32:51;4.47;;;3.38;;
67191;SDS011;54120;53.504;49.426;2022-12-18T15:35:38;4.20;;;3.13;;
67191;SDS011;54120;53.504;49.426;2022-12-18T15:38:04;3.63;;;2.83;;
67191;SDS011;54120;53.504;49.426;2022-12-18T15:40:30;3.58;;;2.88;;
67191;SDS011;54120;53.504;49.426;2022-12-18T15:42:56;4.15;;;3.20;;
67191;SDS011;54120;53.504;49.426;2022-12-18T15:45:41;3.88;;;3.38;;
67191;SDS011;54120;53.504;49.426;2022-12-18T15:48:26;3.45;;;2.63;;
67191;SDS011;54120;53.504;49.426;2022-12-18T15:50:52;3.65;;;2.83;;
67191;SDS011;54120;53.504;49.426;2022-12-18T15:53:23;4.38;;;3.13;;
67191;SDS011;54120;53.504;49.426;2022-12-18T15:55:51;6.72;;;4.00;;
67191;SDS011;54120;53.504;49.426;2022-12-18T15:58:36;4.40;;;3.60;;
67191;SDS011;54120;53.504;49.426;2022-12-18T16:01:02;3.53;;;3.10;;
67191;SDS011;54120;53.504;49.426;2022-12-18T16:03:28;4.30;;;3.28;;
67191;SDS011;54120;53.504;49.426;2022-12-18T16:05:55;5.50;;;4.07;;
67191;SDS011;54120;53.504;49.426;2022-12-18T16:08:23;7.22;;;4.88;;
67191;SDS011;54120;53.504;49.426;2022-12-18T16:10:50;5.07;;;4.40;;
67191;SDS011;54120;53.504;49.426;2022-12-18T16:13:16;6.78;;;5.00;;
67191;SDS011;54120;53.504;49.426;2022-12-18T16:15:45;7.72;;;5.88;;
67191;SDS011;54120;53.504;49.426;2022-12-18T16:18:12;8.93;;;5.25;;
67191;SDS011;54120;53.504;49.426;2022-12-18T16:20:38;8.25;;;5.65;;
67191;SDS011;54120;53.504;49.426;2022-12-18T16:23:05;9.20;;;6.13;;
67191;SDS011;54120;53.504;49.426;2022-12-18T16:25:31;10.07;;;6.18;;
67191;SDS011;54120;53.504;49.426;2022-12-18T16:27:57;8.35;;;5.85;;
67191;SDS011;54120;53.504;49.426;2022-12-18T16:30:25;12.40;;;6.88;;
67191;SDS011;54120;53.504;49.426;2022-12-18T16:32:54;11.55;;;6.85;;
67191;SDS011;54120;53.504;49.426;2022-12-18T16:35:22;15.60;;;7.53;;
67191;SDS011;54120;53.504;49.426;2022-12-18T16:37:49;12.82;;;7.68;;
67191;SDS011;54120;53.504;49.426;2022-12-18T16:40:16;12.73;;;7.40;;
67191;SDS011;54120;53.504;49.426;2022-12-18T16:42:43;17.00;;;8.18;;